Columbus, Ohio
Traffic Map
Current Weather Conditions
Columbus, Ohio
Broken Clouds
Broken Clouds
78°
Feels Like: 79°
Wind Chill: 78° Ceiling: 25000
Heat Index: 79° Visibility: 10mi
Dew Point: 58° Wind: 0mph
Humidity: 50% Direction: ° ()
Pressure: 30.04in Gusts: 0mph
Raw Report DataKCMH 301551Z 00000KT 10SM BKN250 26/14 A3004 RMK AO2 SLP166 T02560144 $
Traffic Incident Summary
Active as of:
Severity:
Category:
InformationThere was an issue retrieving the traffic information for this location. Please try a different location or try again shortly.
Advertisements
Track Severe Weather on mobile